createdAt,value
2022-10-17T00:00:01.532Z,14.67
2022-10-17T00:01:04.704Z,14.55
2022-10-17T00:02:06.697Z,14.43
2022-10-17T00:03:08.872Z,14.33
2022-10-17T00:04:10.832Z,14.29
2022-10-17T00:05:13.099Z,14.26
2022-10-17T00:06:16.132Z,14.17
2022-10-17T00:07:17.643Z,14.05
2022-10-17T00:08:20.439Z,14.08
2022-10-17T00:09:22.557Z,14.08
2022-10-17T00:10:24.666Z,14.11
2022-10-17T00:11:26.319Z,14.04
2022-10-17T00:12:27.894Z,14.00
2022-10-17T00:13:30.800Z,14.00
2022-10-17T00:14:33.129Z,14.00
2022-10-17T00:15:35.246Z,14.01
2022-10-17T00:16:38.202Z,14.02
2022-10-17T00:17:40.471Z,14.04
2022-10-17T00:18:42.588Z,14.10
2022-10-17T00:19:44.698Z,14.16
2022-10-17T00:20:46.500Z,14.18
2022-10-17T00:21:50.502Z,14.24
2022-10-17T00:22:52.041Z,14.22
2022-10-17T00:23:55.161Z,14.25
2022-10-17T00:24:56.869Z,14.26
2022-10-17T00:26:01.770Z,14.27
2022-10-17T00:27:03.503Z,14.29
2022-10-17T00:28:05.620Z,14.26
2022-10-17T00:29:08.270Z,14.26
2022-10-17T00:30:15.860Z,14.17
2022-10-17T00:31:19.977Z,14.14
2022-10-17T00:32:22.093Z,14.12
2022-10-17T00:33:24.206Z,14.04
2022-10-17T00:34:26.319Z,13.97
2022-10-17T00:35:28.224Z,13.90
2022-10-17T00:36:31.047Z,13.84
2022-10-17T00:37:34.547Z,13.81
2022-10-17T00:38:37.778Z,13.78
2022-10-17T00:39:39.888Z,13.75
2022-10-17T00:40:42.007Z,13.68
2022-10-17T00:41:44.115Z,13.67
2022-10-17T00:42:46.230Z,13.62
2022-10-17T00:43:53.234Z,13.61
2022-10-17T00:45:03.233Z,13.59
2022-10-17T00:46:05.600Z,13.60
2022-10-17T00:47:14.689Z,13.57
2022-10-17T00:48:21.231Z,13.53
2022-10-17T00:49:29.866Z,13.45
2022-10-17T00:50:33.921Z,13.42
2022-10-17T00:51:42.072Z,13.41
2022-10-17T00:52:46.339Z,13.43
2022-10-17T00:53:48.248Z,13.43
2022-10-17T00:54:55.580Z,13.47
2022-10-17T00:55:58.253Z,13.54
2022-10-17T00:57:01.787Z,13.59
2022-10-17T00:58:05.931Z,13.62
2022-10-17T00:59:10.936Z,13.65
2022-10-17T01:00:15.163Z,13.62
2022-10-17T01:01:17.327Z,13.61
2022-10-17T01:02:22.402Z,13.67
2022-10-17T01:03:24.514Z,13.73
2022-10-17T01:04:26.627Z,13.66
2022-10-17T01:05:29.648Z,13.58
2022-10-17T01:06:31.122Z,13.56
2022-10-17T01:07:37.146Z,13.54
2022-10-17T01:08:40.094Z,13.61
2022-10-17T01:09:43.148Z,13.66
2022-10-17T01:11:22.390Z,13.73
2022-10-17T01:12:26.744Z,13.77
2022-10-17T01:13:45.813Z,13.76
2022-10-17T01:15:10.807Z,13.79
2022-10-17T01:16:46.106Z,13.81
2022-10-17T01:18:13.141Z,13.83
2022-10-17T01:19:51.309Z,13.83
2022-10-17T01:21:12.474Z,13.76
2022-10-17T01:22:27.395Z,13.60
2022-10-17T01:24:02.305Z,13.41
2022-10-17T01:25:46.944Z,13.27
2022-10-17T01:27:08.126Z,13.12
2022-10-17T01:28:24.371Z,13.00
2022-10-17T01:29:32.681Z,12.99
2022-10-17T01:30:56.543Z,12.93
2022-10-17T01:32:09.677Z,12.90
2022-10-17T01:33:17.750Z,12.84
2022-10-17T01:34:34.724Z,12.85
2022-10-17T01:35:56.097Z,12.83
2022-10-17T01:37:08.230Z,12.73
2022-10-17T01:38:24.377Z,12.70
2022-10-17T01:39:40.756Z,12.74
2022-10-17T01:40:50.643Z,12.75
2022-10-17T01:42:13.305Z,12.81
2022-10-17T01:43:26.617Z,12.88
2022-10-17T01:44:50.047Z,12.93
2022-10-17T01:45:56.203Z,12.99
2022-10-17T01:47:08.178Z,13.04
2022-10-17T01:48:25.475Z,13.06
2022-10-17T01:49:31.239Z,13.12
2022-10-17T01:50:42.727Z,13.12
2022-10-17T01:52:02.876Z,13.11
2022-10-17T01:53:20.014Z,13.02
2022-10-17T01:54:58.325Z,12.93
2022-10-17T01:56:03.322Z,12.91
2022-10-17T01:57:10.711Z,12.90
2022-10-17T01:58:22.680Z,12.88
2022-10-17T01:59:30.698Z,12.89
2022-10-17T02:00:33.330Z,12.84
2022-10-17T02:01:36.970Z,12.88
2022-10-17T02:02:40.616Z,12.94
2022-10-17T02:03:45.166Z,13.00
2022-10-17T02:04:49.070Z,12.95
2022-10-17T02:05:52.406Z,12.90
2022-10-17T02:06:54.517Z,12.93
2022-10-17T02:07:57.001Z,12.95
2022-10-17T02:08:59.745Z,12.97
2022-10-17T02:10:01.837Z,13.04
2022-10-17T02:11:12.998Z,13.01
2022-10-17T02:12:42.905Z,12.87
2022-10-17T02:14:07.342Z,12.84
2022-10-17T02:15:42.818Z,12.74
2022-10-17T02:17:08.645Z,12.73
2022-10-17T02:18:47.826Z,12.83
2022-10-17T02:20:28.009Z,12.90
2022-10-17T02:21:43.145Z,12.93
2022-10-17T02:22:51.496Z,12.95
2022-10-17T02:24:12.415Z,12.95
2022-10-17T02:25:25.913Z,12.97
2022-10-17T02:26:39.685Z,12.97
2022-10-17T02:28:02.844Z,13.02
2022-10-17T02:29:13.821Z,13.06
2022-10-17T02:30:44.138Z,13.10
2022-10-17T02:31:56.271Z,12.96
2022-10-17T02:33:16.407Z,12.82
2022-10-17T02:34:45.078Z,12.64
2022-10-17T02:35:54.711Z,12.50
2022-10-17T02:37:00.842Z,12.34
2022-10-17T02:38:05.953Z,12.35
2022-10-17T02:39:11.067Z,12.28
2022-10-17T02:40:15.190Z,12.22
2022-10-17T02:41:20.283Z,12.19
2022-10-17T02:42:25.427Z,12.19
2022-10-17T02:43:28.384Z,12.14
2022-10-17T02:44:32.046Z,12.13
2022-10-17T02:45:36.780Z,12.16
2022-10-17T02:46:42.350Z,12.22
2022-10-17T02:48:03.046Z,12.26
2022-10-17T02:49:16.185Z,12.34
2022-10-17T02:50:22.335Z,12.45
2022-10-17T02:51:38.301Z,12.56
2022-10-17T02:52:48.571Z,12.63
2022-10-17T02:54:17.059Z,12.65
2022-10-17T02:55:25.129Z,12.64
2022-10-17T02:56:30.981Z,12.58
2022-10-17T02:57:41.998Z,12.63
2022-10-17T02:58:49.230Z,12.63
2022-10-17T02:59:52.349Z,12.44
2022-10-17T03:00:54.505Z,12.30
2022-10-17T03:01:56.584Z,12.14
2022-10-17T03:03:00.198Z,12.04
2022-10-17T03:04:19.847Z,11.89
2022-10-17T03:05:27.972Z,11.83
2022-10-17T03:06:30.836Z,11.74
2022-10-17T03:07:33.199Z,11.69
2022-10-17T03:09:38.421Z,11.70
2022-10-17T03:10:40.968Z,11.67
2022-10-17T03:11:43.143Z,11.65
2022-10-17T03:12:45.774Z,11.65
2022-10-17T03:13:48.287Z,11.70
2022-10-17T03:14:51.652Z,11.76
2022-10-17T03:15:53.120Z,11.80
2022-10-17T03:16:55.052Z,11.86
2022-10-17T03:17:57.090Z,11.87
2022-10-17T03:18:59.314Z,11.89
2022-10-17T03:20:01.578Z,11.91
2022-10-17T03:21:04.693Z,11.97
2022-10-17T03:22:06.808Z,12.05
2022-10-17T03:23:13.543Z,12.11
2022-10-17T03:24:16.045Z,12.18
2022-10-17T03:25:17.897Z,12.26
2022-10-17T03:26:23.280Z,12.29
2022-10-17T03:27:25.768Z,12.34
2022-10-17T03:28:27.514Z,12.41
2022-10-17T03:29:29.180Z,12.40
2022-10-17T03:30:33.272Z,12.40
2022-10-17T03:31:35.859Z,12.48
2022-10-17T03:32:38.448Z,12.50
2022-10-17T03:33:40.923Z,12.49
2022-10-17T03:34:43.002Z,12.40
2022-10-17T03:35:45.951Z,12.34
2022-10-17T03:36:48.421Z,12.28
2022-10-17T03:37:50.535Z,12.25
2022-10-17T03:38:54.657Z,12.20
2022-10-17T03:39:57.117Z,12.15
2022-10-17T03:40:58.890Z,12.13
2022-10-17T03:42:01.212Z,12.10
2022-10-17T03:43:03.032Z,12.01
2022-10-17T03:44:05.231Z,11.97
2022-10-17T03:45:06.980Z,11.92
2022-10-17T03:46:09.530Z,11.88
2022-10-17T03:47:14.175Z,11.84
2022-10-17T03:48:16.850Z,11.84
2022-10-17T03:49:18.471Z,11.82
2022-10-17T03:50:20.915Z,11.88
2022-10-17T03:51:23.029Z,11.92
2022-10-17T03:52:31.159Z,11.91
2022-10-17T03:53:34.273Z,11.92
2022-10-17T03:54:36.387Z,11.98
2022-10-17T03:55:39.501Z,12.00
2022-10-17T03:56:41.613Z,12.04
2022-10-17T03:57:47.540Z,12.04
2022-10-17T03:58:51.857Z,12.06
2022-10-17T03:59:53.485Z,12.01
2022-10-17T04:00:56.124Z,11.99
2022-10-17T04:01:58.194Z,12.02
2022-10-17T04:03:00.753Z,12.02
2022-10-17T04:04:02.975Z,12.02
2022-10-17T04:05:08.494Z,12.01
2022-10-17T04:06:12.678Z,11.98
2022-10-17T04:07:16.848Z,12.01
2022-10-17T04:08:20.914Z,11.94
2022-10-17T04:09:38.057Z,11.77
2022-10-17T04:10:47.160Z,11.78
2022-10-17T04:11:49.298Z,11.74
2022-10-17T04:12:51.417Z,11.76
2022-10-17T04:13:55.538Z,11.73
2022-10-17T04:14:58.504Z,11.71
2022-10-17T04:16:03.865Z,11.75
2022-10-17T04:17:05.888Z,11.74
2022-10-17T04:18:09.009Z,11.79
2022-10-17T04:19:12.936Z,11.84
2022-10-17T04:20:19.101Z,11.90
2022-10-17T04:21:21.365Z,11.90
2022-10-17T04:22:23.481Z,11.92
2022-10-17T04:23:25.596Z,11.86
2022-10-17T04:24:31.723Z,11.74
2022-10-17T04:25:44.806Z,11.65
2022-10-17T04:26:49.978Z,11.49
2022-10-17T04:27:52.102Z,11.37
2022-10-17T04:28:54.214Z,11.31
2022-10-17T04:29:56.328Z,11.25
2022-10-17T04:31:01.939Z,11.20
2022-10-17T04:32:08.522Z,11.10
2022-10-17T04:33:17.703Z,11.09
2022-10-17T04:34:19.820Z,11.13
2022-10-17T04:35:21.933Z,11.04
2022-10-17T04:36:30.060Z,11.03
2022-10-17T04:37:32.176Z,11.04
2022-10-17T04:38:37.194Z,11.08
2022-10-17T04:39:41.417Z,11.09
2022-10-17T04:40:43.531Z,11.15
2022-10-17T04:41:45.648Z,11.28
2022-10-17T04:42:47.760Z,11.38
2022-10-17T04:43:53.542Z,11.38
2022-10-17T04:44:55.999Z,11.39
2022-10-17T04:46:01.949Z,11.39
2022-10-17T04:47:03.543Z,11.48
2022-10-17T04:48:05.346Z,11.47
2022-10-17T04:49:07.061Z,11.45
2022-10-17T04:50:09.583Z,11.45
2022-10-17T04:51:14.709Z,11.44
2022-10-17T04:52:32.842Z,11.39
2022-10-17T04:53:37.222Z,11.39
2022-10-17T04:54:40.080Z,11.41
2022-10-17T04:55:44.207Z,11.42
2022-10-17T04:56:46.319Z,11.47
2022-10-17T04:57:48.436Z,11.50
2022-10-17T04:58:55.566Z,11.53
2022-10-17T04:59:57.282Z,11.57
2022-10-17T05:01:23.640Z,11.66
2022-10-17T05:02:27.874Z,11.71
2022-10-17T05:03:30.084Z,11.73
2022-10-17T05:04:32.212Z,11.62
2022-10-17T05:05:34.314Z,11.50
2022-10-17T05:06:38.082Z,11.47
2022-10-17T05:08:03.575Z,11.31
2022-10-17T05:09:07.088Z,11.26
2022-10-17T05:10:09.822Z,11.20
2022-10-17T05:11:29.971Z,11.10
2022-10-17T05:12:31.703Z,11.07
2022-10-17T05:13:33.575Z,11.04
2022-10-17T05:14:35.316Z,11.03
2022-10-17T05:15:38.578Z,11.02
2022-10-17T05:16:41.166Z,11.02
2022-10-17T05:17:43.584Z,10.98
2022-10-17T05:18:52.711Z,11.00
2022-10-17T05:19:54.894Z,11.06
2022-10-17T05:20:57.246Z,11.10
2022-10-17T05:21:59.132Z,11.16
2022-10-17T05:23:01.969Z,11.23
2022-10-17T05:24:10.370Z,11.29
2022-10-17T05:25:13.699Z,11.34
2022-10-17T05:26:17.255Z,11.44
2022-10-17T05:27:18.983Z,11.51
2022-10-17T05:28:21.001Z,11.60
2022-10-17T05:29:22.946Z,11.53
2022-10-17T05:30:33.719Z,11.49
2022-10-17T05:31:39.154Z,11.54
2022-10-17T05:32:43.316Z,11.67
2022-10-17T05:33:45.428Z,11.86
2022-10-17T05:34:48.546Z,12.07
2022-10-17T05:35:50.054Z,12.31
2022-10-17T05:36:51.776Z,12.51
2022-10-17T05:37:55.893Z,12.74
2022-10-17T05:38:59.010Z,12.97
2022-10-17T05:40:01.981Z,13.20
2022-10-17T05:41:06.240Z,13.44
2022-10-17T05:42:08.357Z,13.70
2022-10-17T05:43:11.474Z,13.95
2022-10-17T05:44:13.591Z,14.18
2022-10-17T05:45:19.709Z,14.45
2022-10-17T05:46:21.465Z,14.68
2022-10-17T05:47:22.958Z,14.87
2022-10-17T05:48:25.079Z,15.06
2022-10-17T05:49:33.269Z,15.24
2022-10-17T05:50:45.679Z,15.39
2022-10-17T05:51:50.310Z,15.44
2022-10-17T05:52:55.613Z,15.43
2022-10-17T05:53:57.287Z,15.27
2022-10-17T05:55:01.595Z,15.08
2022-10-17T05:56:05.972Z,14.98
2022-10-17T05:57:07.609Z,14.92
2022-10-17T05:58:17.662Z,14.88
2022-10-17T05:59:28.410Z,14.67
2022-10-17T06:00:40.074Z,14.63
2022-10-17T06:01:41.696Z,14.61
2022-10-17T06:02:43.999Z,14.65
2022-10-17T06:03:47.891Z,14.64
2022-10-17T06:04:50.101Z,14.63
2022-10-17T06:05:55.130Z,14.62
2022-10-17T06:06:57.242Z,14.58
2022-10-17T06:08:01.850Z,14.57
2022-10-17T06:09:07.308Z,14.59
2022-10-17T06:10:12.527Z,14.74
2022-10-17T06:11:14.730Z,14.91
2022-10-17T06:12:17.067Z,15.03
2022-10-17T06:13:20.126Z,15.17
2022-10-17T06:14:25.078Z,15.33
2022-10-17T06:15:31.107Z,15.48
2022-10-17T06:16:40.331Z,15.62
2022-10-17T06:17:42.446Z,15.76
2022-10-17T06:18:45.679Z,15.96
2022-10-17T06:19:47.319Z,16.17
2022-10-17T06:20:50.799Z,16.44
2022-10-17T06:21:53.917Z,16.67
2022-10-17T06:22:57.859Z,16.79
2022-10-17T06:24:13.171Z,16.87
2022-10-17T06:25:16.578Z,16.91
2022-10-17T06:26:19.405Z,17.07
2022-10-17T06:27:21.521Z,17.17
2022-10-17T06:28:23.289Z,17.27
2022-10-17T06:29:25.766Z,17.38
2022-10-17T06:30:27.532Z,17.47
2022-10-17T06:31:30.009Z,17.45
2022-10-17T06:32:32.377Z,17.25
2022-10-17T06:33:35.244Z,17.27
2022-10-17T06:34:38.374Z,17.44
2022-10-17T06:35:40.930Z,17.49
2022-10-17T06:36:42.595Z,17.51
2022-10-17T06:37:45.722Z,17.55
2022-10-17T06:38:48.688Z,17.59
2022-10-17T06:39:56.962Z,17.74
2022-10-17T06:41:12.097Z,17.70
2022-10-17T06:42:13.699Z,17.63
2022-10-17T06:43:51.399Z,17.55
2022-10-17T06:45:20.574Z,17.40
2022-10-17T06:46:48.698Z,17.58
2022-10-17T06:47:51.945Z,17.67
2022-10-17T06:49:17.028Z,17.86
2022-10-17T06:50:24.171Z,18.00
2022-10-17T06:51:39.305Z,18.17
2022-10-17T06:52:43.556Z,18.32
2022-10-17T06:54:04.606Z,18.50
2022-10-17T06:55:35.795Z,18.75
2022-10-17T06:56:57.377Z,18.92
2022-10-17T06:58:15.107Z,18.97
2022-10-17T06:59:21.239Z,19.13
2022-10-17T07:00:27.374Z,19.45
2022-10-17T07:01:33.335Z,19.72
2022-10-17T07:02:37.377Z,19.94
2022-10-17T07:03:40.625Z,20.05
2022-10-17T07:04:42.880Z,20.17
2022-10-17T07:05:53.023Z,20.35
2022-10-17T07:06:54.758Z,20.48
2022-10-17T07:07:58.269Z,20.54
2022-10-17T07:09:00.038Z,20.67
2022-10-17T07:10:01.549Z,20.83
2022-10-17T07:11:13.710Z,21.13
2022-10-17T07:12:15.821Z,21.24
2022-10-17T07:13:20.956Z,21.36
2022-10-17T07:14:22.871Z,21.24
2022-10-17T07:15:26.215Z,21.20
2022-10-17T07:16:27.640Z,21.22
2022-10-17T07:17:37.395Z,21.51
2022-10-17T07:18:40.609Z,21.67
2022-10-17T07:19:42.735Z,21.85
2022-10-17T07:20:53.225Z,22.09
2022-10-17T07:21:55.001Z,22.48
2022-10-17T07:22:57.402Z,22.88
2022-10-17T07:23:59.486Z,23.23
2022-10-17T07:25:01.377Z,23.34
2022-10-17T07:26:11.060Z,23.25
2022-10-17T07:27:14.645Z,23.47
2022-10-17T07:28:16.772Z,23.54
2022-10-17T07:29:18.752Z,23.49
2022-10-17T07:30:28.048Z,23.58
2022-10-17T07:31:37.912Z,23.79
2022-10-17T07:32:39.583Z,24.03
2022-10-17T07:34:46.559Z,24.07
2022-10-17T07:35:48.633Z,24.19
2022-10-17T07:36:50.806Z,24.21
2022-10-17T07:37:53.584Z,24.04
2022-10-17T07:38:56.614Z,23.94
2022-10-17T07:39:59.830Z,23.95
2022-10-17T07:41:03.771Z,23.82
2022-10-17T07:42:05.836Z,23.72
2022-10-17T07:43:07.435Z,23.57
2022-10-17T07:44:09.705Z,23.35
2022-10-17T07:45:17.428Z,23.15
2022-10-17T07:46:19.431Z,22.97
2022-10-17T07:47:22.089Z,22.98
2022-10-17T07:48:26.219Z,23.04
2022-10-17T07:49:27.814Z,23.02
2022-10-17T07:50:29.468Z,22.90
2022-10-17T07:51:30.900Z,22.86
2022-10-17T07:52:32.758Z,23.04
2022-10-17T07:53:38.783Z,22.97
2022-10-17T07:54:40.957Z,22.84
2022-10-17T07:55:43.786Z,22.85
2022-10-17T07:56:46.204Z,22.73
2022-10-17T07:57:47.866Z,22.68
2022-10-17T07:58:49.512Z,22.46
2022-10-17T07:59:51.563Z,22.28
2022-10-17T08:00:53.916Z,22.30
2022-10-17T08:01:56.811Z,22.10
2022-10-17T08:02:58.794Z,22.07
2022-10-17T08:04:01.055Z,21.90
2022-10-17T08:05:03.179Z,21.78
2022-10-17T08:06:05.304Z,21.65
2022-10-17T08:07:19.667Z,21.56
2022-10-17T08:08:23.575Z,21.61
2022-10-17T08:09:25.702Z,21.70
2022-10-17T08:10:27.462Z,21.79
2022-10-17T08:11:29.945Z,21.66
2022-10-17T08:12:32.525Z,21.54
2022-10-17T08:13:35.744Z,21.37
2022-10-17T08:14:37.313Z,21.27
2022-10-17T08:15:39.434Z,21.24
2022-10-17T08:16:41.130Z,21.13
2022-10-17T08:17:42.682Z,21.05
2022-10-17T08:18:44.140Z,20.97
2022-10-17T08:19:45.817Z,20.89
2022-10-17T08:20:47.561Z,20.86
2022-10-17T08:21:49.172Z,20.84
2022-10-17T08:22:55.300Z,20.84
2022-10-17T08:23:57.478Z,20.82
2022-10-17T08:24:59.547Z,20.79
2022-10-17T08:26:03.580Z,20.77
2022-10-17T08:27:05.794Z,20.75
2022-10-17T08:29:16.054Z,20.79
2022-10-17T08:30:18.174Z,20.83
2022-10-17T08:31:21.301Z,20.81
2022-10-17T08:32:29.014Z,20.85
2022-10-17T08:33:31.580Z,20.83
2022-10-17T08:34:33.710Z,20.79
2022-10-17T08:35:35.582Z,20.71
2022-10-17T08:36:37.398Z,20.70
2022-10-17T08:37:38.857Z,20.71
2022-10-17T08:38:43.155Z,20.70
2022-10-17T08:39:45.979Z,20.68
2022-10-17T08:40:49.512Z,20.70
2022-10-17T08:42:10.674Z,20.71
2022-10-17T08:43:42.063Z,20.76
2022-10-17T08:45:15.015Z,20.69
2022-10-17T08:46:17.197Z,20.65
2022-10-17T08:47:34.036Z,20.63
2022-10-17T08:48:44.125Z,20.60
2022-10-17T08:49:58.694Z,20.68
2022-10-17T08:51:09.243Z,20.73
2022-10-17T08:52:18.858Z,20.80
2022-10-17T08:53:36.937Z,20.87
2022-10-17T08:54:47.242Z,20.86
2022-10-17T08:55:51.583Z,20.92
2022-10-17T08:56:55.491Z,20.94
2022-10-17T08:57:57.523Z,21.01
2022-10-17T08:58:59.737Z,20.99
2022-10-17T09:00:01.868Z,20.91
2022-10-17T09:01:41.045Z,20.88
2022-10-17T09:02:47.559Z,20.94
2022-10-17T09:04:13.875Z,20.97
2022-10-17T09:05:34.477Z,20.92
2022-10-17T09:06:50.617Z,20.90
2022-10-17T09:08:20.784Z,20.98
2022-10-17T09:09:40.514Z,21.01
2022-10-17T09:11:19.440Z,21.06
2022-10-17T09:12:30.606Z,21.08
2022-10-17T09:13:38.372Z,21.06
2022-10-17T09:15:04.727Z,21.06
2022-10-17T09:16:23.854Z,21.15
2022-10-17T09:17:41.058Z,21.29
2022-10-17T09:19:17.551Z,21.33
2022-10-17T09:20:53.475Z,21.46
2022-10-17T09:22:02.126Z,21.43
2022-10-17T09:23:13.423Z,21.36
2022-10-17T09:24:25.561Z,21.43
2022-10-17T09:25:28.677Z,21.41
2022-10-17T09:26:30.790Z,21.34
2022-10-17T09:27:36.914Z,21.43
2022-10-17T09:28:41.102Z,21.44
2022-10-17T09:29:47.153Z,21.54
2022-10-17T09:31:07.300Z,21.52
2022-10-17T09:32:18.365Z,21.48
2022-10-17T09:33:42.568Z,21.56
2022-10-17T09:34:54.659Z,21.64
2022-10-17T09:35:58.662Z,21.69
2022-10-17T09:37:01.954Z,21.63
2022-10-17T09:38:03.914Z,21.62
2022-10-17T09:39:18.917Z,21.68
2022-10-17T09:40:30.346Z,21.69
2022-10-17T09:41:50.519Z,21.77
2022-10-17T09:42:52.608Z,21.90
2022-10-17T09:43:58.924Z,21.93
2022-10-17T09:45:17.415Z,21.93
2022-10-17T09:46:21.998Z,21.93
2022-10-17T09:47:35.143Z,21.94
2022-10-17T09:48:47.805Z,21.94
2022-10-17T09:49:52.051Z,21.82
2022-10-17T09:51:08.258Z,21.70
2022-10-17T09:52:26.090Z,21.78
2022-10-17T09:53:32.859Z,21.74
2022-10-17T09:54:50.012Z,21.75
2022-10-17T09:55:57.148Z,21.75
2022-10-17T09:57:04.269Z,21.76
2022-10-17T09:58:07.815Z,21.74
2022-10-17T09:59:13.747Z,21.78
2022-10-17T10:00:26.695Z,21.88
2022-10-17T10:01:32.767Z,21.97
2022-10-17T10:02:34.886Z,22.09
2022-10-17T10:03:36.998Z,22.13
2022-10-17T10:05:06.407Z,22.20
2022-10-17T10:06:20.933Z,22.13
2022-10-17T10:07:28.299Z,22.18
2022-10-17T10:08:36.559Z,22.26
2022-10-17T10:09:39.628Z,22.31
2022-10-17T10:10:43.372Z,22.37
2022-10-17T10:11:48.959Z,22.35
2022-10-17T10:13:17.608Z,22.39
2022-10-17T10:14:23.941Z,22.41
2022-10-17T10:15:38.338Z,22.31
2022-10-17T10:16:46.465Z,22.30
2022-10-17T10:17:48.581Z,22.30
2022-10-17T10:18:52.689Z,22.40
2022-10-17T10:19:54.822Z,22.41
2022-10-17T10:21:16.043Z,22.35
2022-10-17T10:22:23.088Z,22.35
2022-10-17T10:23:24.546Z,22.41
2022-10-17T10:24:30.584Z,22.48
2022-10-17T10:25:33.449Z,22.47
2022-10-17T10:26:38.568Z,22.43
2022-10-17T10:27:42.623Z,22.52
2022-10-17T10:28:52.859Z,22.53
2022-10-17T10:29:54.939Z,22.52
2022-10-17T10:30:58.984Z,22.51
2022-10-17T10:32:16.862Z,22.49
2022-10-17T10:33:26.323Z,22.46
2022-10-17T10:34:30.450Z,22.38
2022-10-17T10:35:35.567Z,22.39
2022-10-17T10:36:45.707Z,22.44
2022-10-17T10:37:53.929Z,22.49
2022-10-17T10:38:59.203Z,22.56
2022-10-17T10:40:17.417Z,22.63
2022-10-17T10:41:18.996Z,22.64
2022-10-17T10:42:32.571Z,22.74
2022-10-17T10:43:44.000Z,22.82
2022-10-17T10:44:46.607Z,22.74
2022-10-17T10:45:49.172Z,22.77
2022-10-17T10:47:14.907Z,22.78
2022-10-17T10:48:30.060Z,22.71
2022-10-17T10:49:33.071Z,22.70
2022-10-17T10:50:45.296Z,22.67
2022-10-17T10:51:49.879Z,22.66
2022-10-17T10:53:32.828Z,22.62
2022-10-17T10:54:47.739Z,22.56
2022-10-17T10:55:53.959Z,22.63
2022-10-17T10:57:00.104Z,22.71
2022-10-17T10:58:08.686Z,22.79
2022-10-17T10:59:22.889Z,22.78
2022-10-17T11:00:28.566Z,22.63
2022-10-17T11:02:10.097Z,22.66
2022-10-17T11:03:29.988Z,22.73
2022-10-17T11:04:39.012Z,22.78
2022-10-17T11:05:47.148Z,22.84
2022-10-17T11:06:52.859Z,22.83
2022-10-17T11:08:12.419Z,22.87
2022-10-17T11:09:18.487Z,22.89
2022-10-17T11:10:59.737Z,22.89
2022-10-17T11:12:11.876Z,22.81
2022-10-17T11:13:26.013Z,22.84
2022-10-17T11:14:41.154Z,22.89
2022-10-17T11:16:14.933Z,22.92
2022-10-17T11:17:21.465Z,22.84
2022-10-17T11:18:28.585Z,22.78
2022-10-17T11:19:37.700Z,22.81
2022-10-17T11:20:42.838Z,22.85
2022-10-17T11:21:54.975Z,22.78
2022-10-17T11:23:14.515Z,22.80
2022-10-17T11:24:25.260Z,22.85
2022-10-17T11:25:39.050Z,22.91
2022-10-17T11:26:46.522Z,22.93
2022-10-17T11:27:48.645Z,22.99
2022-10-17T11:28:50.200Z,22.94
2022-10-17T11:29:51.763Z,22.95
2022-10-17T11:31:04.464Z,22.97
2022-10-17T11:32:15.511Z,22.97
2022-10-17T11:33:44.197Z,22.95
2022-10-17T11:34:49.722Z,22.95
2022-10-17T11:35:54.282Z,22.89
2022-10-17T11:37:19.197Z,22.96
2022-10-17T11:38:38.510Z,22.88
2022-10-17T11:40:04.324Z,22.92
2022-10-17T11:41:09.133Z,22.90
2022-10-17T11:42:15.585Z,22.96
2022-10-17T11:43:35.262Z,22.93
2022-10-17T11:44:39.761Z,22.86
2022-10-17T11:45:46.455Z,22.92
2022-10-17T11:46:53.203Z,22.96
2022-10-17T11:48:17.699Z,22.87
2022-10-17T11:49:22.533Z,22.86
2022-10-17T11:52:06.841Z,22.94
2022-10-17T11:53:20.707Z,22.93
2022-10-17T11:54:28.771Z,23.00
2022-10-17T11:55:32.395Z,23.00
2022-10-17T11:56:52.845Z,22.98
2022-10-17T11:59:53.059Z,22.95
2022-10-17T12:01:11.462Z,22.93
2022-10-17T12:02:27.949Z,22.91
2022-10-17T12:03:41.819Z,22.96
2022-10-17T12:05:21.933Z,23.02
2022-10-17T12:06:51.258Z,23.02
2022-10-17T12:08:00.226Z,23.01
2022-10-17T12:09:06.354Z,23.03
2022-10-17T12:10:20.209Z,23.04
2022-10-17T12:11:27.372Z,22.91
2022-10-17T12:12:32.136Z,22.86
2022-10-17T12:13:33.858Z,22.82
2022-10-17T12:14:47.999Z,22.77
2022-10-17T12:15:50.116Z,22.74
2022-10-17T12:16:52.243Z,22.77
2022-10-17T12:18:01.812Z,22.76
2022-10-17T12:19:03.377Z,22.78
2022-10-17T12:20:23.636Z,22.77
2022-10-17T12:21:29.679Z,22.80
2022-10-17T12:22:33.606Z,22.82
2022-10-17T12:23:35.988Z,22.77
2022-10-17T12:24:41.864Z,22.71
2022-10-17T12:25:57.127Z,22.80
2022-10-17T12:27:23.416Z,22.81
2022-10-17T12:28:41.001Z,22.72
2022-10-17T12:29:42.671Z,22.73
2022-10-17T12:30:54.129Z,22.70
2022-10-17T12:32:11.967Z,22.74
2022-10-17T12:33:17.793Z,22.68
2022-10-17T12:34:22.690Z,22.70
2022-10-17T12:35:26.423Z,22.74
2022-10-17T12:36:27.799Z,22.67
2022-10-17T12:37:51.588Z,22.63
2022-10-17T12:39:02.267Z,22.68
2022-10-17T12:40:04.795Z,22.70
2022-10-17T12:41:06.955Z,22.61
2022-10-17T12:42:33.118Z,22.58
2022-10-17T12:43:45.305Z,22.65
2022-10-17T12:44:47.907Z,22.69
2022-10-17T12:46:00.506Z,22.67
2022-10-17T12:47:05.272Z,22.70
2022-10-17T12:48:10.745Z,22.78
2022-10-17T12:49:21.884Z,22.82
2022-10-17T12:51:30.765Z,22.81
2022-10-17T12:52:26.219Z,22.74
2022-10-17T12:53:47.388Z,22.74
2022-10-17T12:55:13.165Z,22.78
2022-10-17T12:56:43.232Z,22.73
2022-10-17T12:58:03.859Z,22.76
2022-10-17T12:59:18.625Z,22.78
2022-10-17T13:00:25.177Z,22.76
2022-10-17T13:01:34.025Z,22.80
2022-10-17T13:02:35.578Z,22.86
2022-10-17T13:03:44.002Z,22.86
2022-10-17T13:04:47.660Z,22.81
2022-10-17T13:05:53.555Z,22.80
2022-10-17T13:06:58.818Z,22.82
2022-10-17T13:08:04.066Z,22.82
2022-10-17T13:09:15.975Z,22.83
2022-10-17T13:10:24.430Z,22.78
2022-10-17T13:11:29.183Z,22.77
2022-10-17T13:12:37.667Z,22.75
2022-10-17T13:13:45.769Z,22.72
2022-10-17T13:14:50.779Z,22.68
2022-10-17T13:15:55.023Z,22.63
2022-10-17T13:16:59.560Z,22.62
2022-10-17T13:18:02.277Z,22.62
2022-10-17T13:19:13.233Z,22.66
2022-10-17T13:20:25.615Z,22.62
2022-10-17T13:21:30.699Z,22.62
2022-10-17T13:22:33.824Z,22.66
2022-10-17T13:23:37.756Z,22.66
2022-10-17T13:24:41.082Z,22.62
2022-10-17T13:25:43.177Z,22.60
2022-10-17T13:26:47.857Z,22.56
2022-10-17T13:27:51.444Z,22.52
2022-10-17T13:29:11.634Z,22.54
2022-10-17T13:30:31.195Z,22.55
2022-10-17T13:31:37.864Z,22.55
2022-10-17T13:32:40.159Z,22.56
2022-10-17T13:33:42.165Z,22.49
2022-10-17T13:34:44.209Z,22.47
2022-10-17T13:35:59.912Z,22.42
2022-10-17T13:37:08.055Z,22.45
2022-10-17T13:38:12.858Z,22.43
2022-10-17T13:39:23.072Z,22.40
2022-10-17T13:40:44.589Z,22.35
2022-10-17T13:41:52.068Z,22.41
2022-10-17T13:42:56.640Z,22.35
2022-10-17T13:43:58.520Z,22.29
2022-10-17T13:45:00.244Z,22.26
2022-10-17T13:46:19.154Z,22.23
2022-10-17T13:47:28.256Z,22.26
2022-10-17T13:48:34.226Z,22.23
2022-10-17T13:49:43.249Z,22.23
2022-10-17T13:50:49.229Z,22.19
2022-10-17T13:51:52.921Z,22.18
2022-10-17T13:53:32.304Z,22.22
2022-10-17T13:54:42.198Z,22.22
2022-10-17T13:56:15.831Z,22.16
2022-10-17T13:57:30.128Z,22.18
2022-10-17T13:58:50.125Z,22.16
2022-10-17T13:59:54.979Z,22.11
2022-10-17T14:00:57.402Z,22.03
2022-10-17T14:02:01.404Z,22.01
2022-10-17T14:03:04.629Z,22.02
2022-10-17T14:04:11.976Z,22.00
2022-10-17T14:05:21.898Z,22.04
2022-10-17T14:06:27.907Z,22.03
2022-10-17T14:08:09.373Z,22.03
2022-10-17T14:09:07.912Z,21.90
2022-10-17T14:10:25.422Z,21.93
2022-10-17T14:11:36.648Z,21.86
2022-10-17T14:12:44.506Z,21.90
2022-10-17T14:14:23.548Z,21.83
2022-10-17T14:15:30.973Z,21.78
2022-10-17T14:18:47.914Z,21.75
2022-10-17T14:20:06.482Z,21.78
2022-10-17T14:21:40.593Z,21.78
2022-10-17T14:22:47.038Z,21.72
2022-10-17T14:23:51.322Z,21.74
2022-10-17T14:24:53.399Z,21.73
2022-10-17T14:26:24.098Z,21.71
2022-10-17T14:27:37.805Z,21.70
2022-10-17T14:28:41.055Z,21.71
2022-10-17T14:29:53.567Z,21.70
2022-10-17T14:31:08.326Z,21.70
2022-10-17T14:32:13.725Z,21.60
2022-10-17T14:33:30.102Z,21.57
2022-10-17T14:34:36.597Z,21.60
2022-10-17T14:35:41.850Z,21.59
2022-10-17T14:36:43.922Z,21.50
2022-10-17T14:37:47.591Z,21.50
2022-10-17T14:38:51.923Z,21.46
2022-10-17T14:39:53.725Z,21.44
2022-10-17T14:41:29.662Z,21.38
2022-10-17T14:42:23.631Z,21.33
2022-10-17T14:43:28.345Z,21.33
2022-10-17T14:44:35.361Z,21.30
2022-10-17T14:45:39.307Z,21.28
2022-10-17T14:46:49.565Z,21.27
2022-10-17T14:47:55.004Z,21.31